Terminal Aerodrome Forecast
Issued by NWS Corpus Christi, TX

Home | Current Version | Previous Version | Text Only | Print | Product List | Glossary On
Versions: 1 2 3 4 5 6 7 8 9 10 11 12 13 14 15 16 17
000
FTUS44 KCRP 181100
TAFVCT
TAF
KVCT 181129Z 1812/1912 VRB04KT 3SM BR VCSH BKN003 OVC012
      TEMPO 1812/1813 1SM -RA BR OVC002
     FM181500 03004KT P6SM VCSH BKN007 OVC015
     FM181900 06005KT P6SM VCSH OVC018
     FM182300 09005KT P6SM OVC025
     FM190400 10007KT 6SM BR VCTS OVC015CB PROB30 1906/1912 2SM
      +TSRA BR OVC007CB=

USA.gov is the U.S. government's official web portal to all federal, state and local government web resources and services.